Guatemala City, Guatemala

3:15 AM CST on July 28, 2014 (GMT -0600)
La Aurora International (MGGT) Elev 4885 ft | 14.58 °N, 90.53 °W | Change Station

Current weather conditions updated 15 minutes ago

Partly Cloudy
Partly Cloudy
63 °F
Feels Like 63 °F
N
12
Wind Variable Wind from NNE

Today is forecast to be nearly the same temperature as yesterday. Thunderstorms developing in the afternoon.

Today
High -- | Low -- °F
--% Chance of Precip.
Yesterday
High -- | Low -- °F
Precip. -- in
5:44 AM 6:32 PM
New Moon, 2% visible
Pressure 30.30 in
Visibility 6.2 miles
Clouds Few 1600 ft
Dew Point 59 °F
Humidity 88%
Rainfall 0.00 in
Snow Depth Not available.
UV 0 out of 12
Pollen Not available.
Air Quality Not available.
Flu Activity Not available.
METAR MGGT 280900Z 02010KT 9999 FEW016 17/15 Q1026 A3030

More Conditions Fewer Conditions

Pressure 30.30 in
Visibility 6.2 miles
Clouds Few 1600 ft
Dew Point 59 °F
Humidity 88%
Rainfall 0.00 in
Snow Depth Not available.
UV 0 out of 12
Pollen Not available.
Air Quality Not available.
Flu Activity Not available.
METAR MGGT 280900Z 02010KT 9999 FEW016 17/15 Q1026 A3030

More Conditions Fewer Conditions

10-Day Weather Forecast

Almanac

Astronomy

Jul. 28, 2014 Rise Set
Actual Time 5:44 AM CST 6:32 PM CST
Civil Twilight 5:21 AM CST 6:55 PM CST
Nautical Twilight 4:54 AM CST 7:22 PM CST
Astronomical Twilight 4:27 AM CST 7:49 PM CST
Moon 7:02 AM CST 7:42 PM CST
Length of Visible Light 13h 33m
Length of Day
12h 48m
Tomorrow will be 0m 35s shorter.
New Moon, 2% of the Moon is Illuminated
Today
New Moon
Aug 3
First Quarter
Aug 10
Full
Aug 17
Last Quarter
Aug 25
New

Yesterday's Extremes

Country Highs Country Lows

Community

WunderPhotos

Upload Photos

1,738,296 photos uploaded!

Nearby

Snow Depth

Not available.

Earthquake Activity

City Distance Mag. Time & Date
No recent earthquake activity has been reported nearby.
Minimum magnitude displayed is 2.5.

Coastal Water Temperatures

Place Temperature
No Stations Reporting

Nearby Weather Stations

Station Location Temp. Dew Point Humidity Wind Precip. Elev Updated Type
Acatan zona 16, Guatemala 68.0 °F 57 °F 67% North  at  3.8 mph 0.00 in / hr 5154 ft 1:54 AM CST Rapid Fire
Casa Aleluya, San Bartolome 55.0 °F 51 °F 85% WNW  at  2.5 mph 0.00 in / hr 6811 ft 3:15 AM CST Rapid Fire

Show More Stations Show Fewer Stations